Time;durP1;ratioP1;P1;durP2;ratioP2;P2;SDS_P1;SDS_P2;PMS_P1;PMS_P2;Temp;Humidity;BMP_temperature;BMP_pressure;BME280_temperature;BME280_humidity;BME280_pressure;Samples;Min_cycle;Max_cycle;Signal;HPM_P1;HPM_P2
2021/09/27 00:00:44;;;;;;;6.80;6.03;;;18.60;97.50;;;;;;5012308;28;20063;-67
2021/09/27 00:03:10;;;;;;;8.00;6.60;;;18.60;97.60;;;;;;4996055;28;20038;-67
2021/09/27 00:05:36;;;;;;;8.88;6.47;;;18.50;97.60;;;;;;4994412;28;20034;-67
2021/09/27 00:08:02;;;;;;;9.65;6.60;;;18.50;97.60;;;;;;5008144;28;20103;-67
2021/09/27 00:10:37;;;;;;;7.97;6.20;;;18.50;97.60;;;;;;5014420;28;20026;-67
2021/09/27 00:13:04;;;;;;;8.40;6.50;;;18.50;97.70;;;;;;5011044;28;20033;-67
2021/09/27 00:15:35;;;;;;;8.40;6.80;;;18.50;97.80;;;;;;5013720;28;20034;-67
2021/09/27 00:18:00;;;;;;;8.20;6.68;;;18.50;97.80;;;;;;5009846;28;20045;-67
2021/09/27 00:20:26;;;;;;;7.97;6.70;;;18.50;97.80;;;;;;5013805;28;20391;-67
2021/09/27 00:22:51;;;;;;;8.10;6.13;;;18.50;97.90;;;;;;5010914;28;20026;-66
2021/09/27 00:25:20;;;;;;;8.80;6.63;;;18.40;97.90;;;;;;5014058;28;20030;-67
2021/09/27 00:27:45;;;;;;;8.70;6.75;;;18.40;98.00;;;;;;5010628;28;20029;-67
2021/09/27 00:30:13;;;;;;;8.95;7.00;;;18.40;98.00;;;;;;5012215;28;20091;-67
2021/09/27 00:32:39;;;;;;;7.38;6.47;;;18.40;98.00;;;;;;5001175;28;20030;-67
2021/09/27 00:35:06;;;;;;;8.63;7.18;;;18.30;98.00;;;;;;5013031;28;20033;-66
2021/09/27 00:37:31;;;;;;;8.07;6.63;;;18.40;98.10;;;;;;5010227;28;20037;-67
2021/09/27 00:39:57;;;;;;;8.75;6.38;;;18.40;98.20;;;;;;5012734;28;20026;-67
2021/09/27 00:42:22;;;;;;;8.52;6.53;;;18.30;98.20;;;;;;5001944;28;20395;-67
2021/09/27 00:44:48;;;;;;;9.00;6.70;;;18.30;98.20;;;;;;5013642;28;20033;-66
2021/09/27 00:47:14;;;;;;;9.48;7.07;;;18.30;98.20;;;;;;5010235;28;20030;-67
2021/09/27 00:49:40;;;;;;;8.48;6.63;;;18.30;98.30;;;;;;5012067;28;20469;-67
2021/09/27 00:52:06;;;;;;;8.88;7.70;;;18.20;98.60;;;;;;5010008;28;20033;-67
2021/09/27 00:54:35;;;;;;;8.38;7.15;;;18.20;98.40;;;;;;5006659;28;20035;-66
2021/09/27 00:57:06;;;;;;;8.85;7.00;;;18.20;98.50;;;;;;4997933;28;20119;-66
2021/09/27 00:59:34;;;;;;;8.30;6.85;;;18.20;98.60;;;;;;5010919;28;20040;-67
2021/09/27 01:02:00;;;;;;;10.35;7.60;;;18.10;98.60;;;;;;5011540;28;20386;-66
2021/09/27 01:04:25;;;;;;;8.40;6.95;;;18.10;98.60;;;;;;5011312;28;20022;-67
2021/09/27 01:07:33;;;;;;;9.15;7.05;;;18.10;98.70;;;;;;5010369;28;20123;-67
2021/09/27 01:10:11;;;;;;;8.07;6.88;;;18.10;98.70;;;;;;5019969;28;20045;-67
2021/09/27 01:13:11;;;;;;;9.55;6.75;;;18.10;98.80;;;;;;5011433;28;20030;-66
2021/09/27 01:16:14;;;;;;;8.23;6.80;;;18.00;98.80;;;;;;5011483;28;20034;-66
2021/09/27 01:19:13;;;;;;;12.45;7.47;;;18.00;98.80;;;;;;5011408;28;20038;-66
2021/09/27 01:22:03;;;;;;;9.68;7.38;;;18.00;98.90;;;;;;5004427;28;20030;-66
2021/09/27 01:25:14;;;;;;;8.73;7.43;;;18.00;99.00;;;;;;5010513;28;20036;-66
2021/09/27 01:28:10;;;;;;;10.45;7.18;;;18.00;99.00;;;;;;5003302;28;20129;-66
2021/09/27 01:31:06;;;;;;;10.32;7.93;;;18.00;99.00;;;;;;5012408;28;20071;-66
2021/09/27 01:33:42;;;;;;;9.18;7.28;;;18.00;99.10;;;;;;5010308;28;20038;-66
2021/09/27 01:36:20;;;;;;;9.27;6.85;;;18.00;99.20;;;;;;5012294;28;20030;-67
2021/09/27 01:39:04;;;;;;;9.93;7.70;;;17.90;99.20;;;;;;5006557;28;20038;-67
2021/09/27 01:41:37;;;;;;;11.23;7.55;;;18.00;99.30;;;;;;5009736;28;20029;-66
2021/09/27 01:44:27;;;;;;;8.02;6.55;;;17.90;99.30;;;;;;5012210;28;20044;-66
2021/09/27 01:46:59;;;;;;;9.88;7.40;;;17.90;99.30;;;;;;4991948;28;20077;-66
2021/09/27 01:49:44;;;;;;;8.27;6.90;;;17.90;99.40;;;;;;4993755;28;20104;-66
2021/09/27 01:52:26;;;;;;;8.57;7.10;;;17.90;99.40;;;;;;4998510;28;20072;-67
2021/09/27 01:54:58;;;;;;;11.30;8.00;;;18.00;99.40;;;;;;5004003;28;20100;-67
2021/09/27 01:58:03;;;;;;;9.45;7.47;;;18.00;99.50;;;;;;4994502;28;20471;-66
2021/09/27 02:00:40;;;;;;;8.60;7.50;;;18.00;99.50;;;;;;4993135;28;20030;-66
2021/09/27 02:03:14;;;;;;;9.75;6.90;;;18.00;99.50;;;;;;4998298;28;20034;-67
2021/09/27 02:05:58;;;;;;;9.02;6.93;;;18.00;99.50;;;;;;5007875;28;20022;-67
2021/09/27 02:08:32;;;;;;;7.68;6.40;;;18.00;99.50;;;;;;5003549;28;20034;-67
2021/09/27 02:11:08;;;;;;;8.40;7.20;;;18.10;99.50;;;;;;5010215;28;20029;-67
2021/09/27 02:13:48;;;;;;;8.23;6.38;;;18.10;99.50;;;;;;5011342;28;20034;-67
2021/09/27 02:16:26;;;;;;;13.05;8.15;;;18.10;99.50;;;;;;5009362;28;20029;-67
2021/09/27 02:19:07;;;;;;;8.57;6.90;;;18.10;99.50;;;;;;5011077;28;20125;-67
2021/09/27 02:21:39;;;;;;;7.75;6.50;;;18.20;99.50;;;;;;5010514;28;20056;-67
2021/09/27 02:24:34;;;;;;;7.70;6.88;;;18.20;99.40;;;;;;5007712;28;20119;-67
2021/09/27 02:27:02;;;;;;;8.48;6.45;;;18.20;99.40;;;;;;5005539;28;20050;-67
2021/09/27 02:29:28;;;;;;;10.52;7.13;;;18.20;99.40;;;;;;5010918;28;20157;-67
2021/09/27 02:32:12;;;;;;;8.88;7.15;;;18.20;99.40;;;;;;4997642;28;20026;-66
2021/09/27 02:34:59;;;;;;;9.40;6.57;;;18.20;99.30;;;;;;5006634;28;20482;-66
2021/09/27 02:37:39;;;;;;;8.73;7.22;;;18.20;99.40;;;;;;5010003;28;20068;-66
2021/09/27 02:40:27;;;;;;;12.85;7.30;;;18.20;99.30;;;;;;5009913;28;20034;-66
2021/09/27 02:42:57;;;;;;;9.35;7.13;;;18.30;99.30;;;;;;5008045;28;20068;-66
2021/09/27 02:45:25;;;;;;;8.55;6.90;;;18.30;99.30;;;;;;5010378;28;20037;-66
2021/09/27 02:48:14;;;;;;;8.50;6.88;;;18.30;99.30;;;;;;4995229;28;20382;-67
2021/09/27 02:50:49;;;;;;;8.57;6.95;;;18.30;99.30;;;;;;4995740;28;20030;-66
2021/09/27 02:53:15;;;;;;;7.82;6.47;;;18.30;99.30;;;;;;5012160;28;20104;-67
2021/09/27 02:56:07;;;;;;;8.80;6.85;;;18.30;99.20;;;;;;5010120;28;20121;-66
2021/09/27 02:58:55;;;;;;;7.72;6.20;;;18.30;99.20;;;;;;5009088;28;20034;-66
2021/09/27 03:01:34;;;;;;;10.70;7.55;;;18.30;99.20;;;;;;5012732;28;20399;-66
2021/09/27 03:04:14;;;;;;;9.57;7.38;;;18.30;99.30;;;;;;4995838;28;20034;-67
2021/09/27 03:07:01;;;;;;;9.25;7.40;;;18.30;99.20;;;;;;5004587;28;20038;-67
2021/09/27 03:09:56;;;;;;;9.30;7.07;;;18.30;99.20;;;;;;5015373;28;20030;-67
2021/09/27 03:12:58;;;;;;;8.52;6.65;;;18.30;99.20;;;;;;5012014;28;20045;-67
2021/09/27 03:15:44;;;;;;;9.13;6.57;;;18.30;99.30;;;;;;5005608;28;20400;-67
2021/09/27 03:18:35;;;;;;;8.77;7.38;;;18.20;99.20;;;;;;5013444;28;20129;-67
2021/09/27 03:21:33;;;;;;;9.23;7.40;;;18.30;99.30;;;;;;5009463;28;20494;-67
2021/09/27 03:24:13;;;;;;;8.48;7.07;;;18.30;99.20;;;;;;5013826;28;20036;-67
2021/09/27 03:26:57;;;;;;;9.20;7.07;;;18.30;99.30;;;;;;5013443;28;20398;-67
2021/09/27 03:29:53;;;;;;;8.40;7.03;;;18.30;99.30;;;;;;5002954;28;20026;-67
2021/09/27 03:32:32;;;;;;;10.35;6.97;;;18.30;99.30;;;;;;5012773;28;20466;-67
2021/09/27 03:35:04;;;;;;;10.60;7.45;;;18.20;99.30;;;;;;5014826;28;20079;-67
2021/09/27 03:37:38;;;;;;;7.70;6.63;;;18.20;99.30;;;;;;5011997;28;20482;-67
2021/09/27 03:40:22;;;;;;;9.25;7.13;;;18.20;99.40;;;;;;5017906;28;20037;-67
2021/09/27 03:43:18;;;;;;;8.57;7.45;;;18.20;99.40;;;;;;5002454;28;20541;-67
2021/09/27 03:46:37;;;;;;;11.20;8.35;;;18.20;99.30;;;;;;5008240;28;20511;-68
2021/09/27 03:49:17;;;;;;;10.05;7.55;;;18.20;99.30;;;;;;4988454;28;20493;-67
2021/09/27 03:51:55;;;;;;;8.75;7.15;;;18.20;99.50;;;;;;5009941;28;20059;-67
2021/09/27 03:54:35;;;;;;;9.68;8.05;;;18.20;99.40;;;;;;5014251;28;20728;-67
2021/09/27 03:57:16;;;;;;;8.80;7.65;;;18.20;99.40;;;;;;5012984;28;20048;-66
2021/09/27 03:59:54;;;;;;;8.40;6.88;;;18.20;99.40;;;;;;5013938;28;20045;-68
2021/09/27 04:02:33;;;;;;;9.23;7.47;;;18.30;99.40;;;;;;5007750;28;20498;-68
2021/09/27 04:05:07;;;;;;;12.18;8.05;;;18.30;99.40;;;;;;5011267;28;20112;-68
2021/09/27 04:07:58;;;;;;;10.65;7.38;;;18.30;99.40;;;;;;5012071;28;20037;-68
2021/09/27 04:10:30;;;;;;;9.23;7.10;;;18.30;99.40;;;;;;5010755;28;20036;-68
2021/09/27 04:13:23;;;;;;;10.43;7.75;;;18.40;99.40;;;;;;5014161;28;20433;-68
2021/09/27 04:16:01;;;;;;;8.70;7.25;;;18.40;99.30;;;;;;5011357;28;20034;-68
2021/09/27 04:18:56;;;;;;;9.63;8.07;;;18.40;99.30;;;;;;5010700;28;20042;-68
2021/09/27 04:21:35;;;;;;;8.25;7.05;;;18.40;99.30;;;;;;5012437;28;20041;-68
2021/09/27 04:24:21;;;;;;;9.32;6.90;;;18.40;99.30;;;;;;5011313;28;20048;-68
2021/09/27 04:26:58;;;;;;;9.45;6.88;;;18.40;99.30;;;;;;5010804;28;20029;-68
2021/09/27 04:29:35;;;;;;;8.68;7.05;;;18.40;99.30;;;;;;5002427;28;20034;-68
2021/09/27 04:32:30;;;;;;;8.48;7.30;;;18.40;99.30;;;;;;4994510;28;20069;-68
2021/09/27 04:35:21;;;;;;;8.63;7.45;;;18.40;99.30;;;;;;5007970;28;20038;-68
2021/09/27 04:37:48;;;;;;;9.25;7.72;;;18.40;99.30;;;;;;5012668;28;20034;-68
2021/09/27 04:40:16;;;;;;;10.77;7.53;;;18.30;99.20;;;;;;5011026;28;20041;-68
2021/09/27 04:43:04;;;;;;;9.43;7.60;;;18.40;99.30;;;;;;5007126;28;20041;-68
2021/09/27 04:45:59;;;;;;;8.95;7.70;;;18.40;99.30;;;;;;5011843;28;20038;-68
2021/09/27 04:48:53;;;;;;;9.32;6.68;;;18.40;99.30;;;;;;5011217;28;20029;-68
2021/09/27 04:51:39;;;;;;;8.52;7.28;;;18.40;99.30;;;;;;5011860;28;20060;-68
2021/09/27 04:54:50;;;;;;;10.68;7.03;;;18.50;99.30;;;;;;5011776;28;20125;-68
2021/09/27 04:57:28;;;;;;;8.65;7.20;;;18.50;99.30;;;;;;5001910;28;20186;-68
2021/09/27 05:00:00;;;;;;;8.75;7.22;;;18.50;99.30;;;;;;5012652;28;20038;-70
2021/09/27 05:02:44;;;;;;;9.80;7.90;;;18.50;99.20;;;;;;5011332;28;20034;-69
2021/09/27 05:05:41;;;;;;;9.18;6.90;;;18.50;99.20;;;;;;5006679;28;20027;-68
2021/09/27 05:08:37;;;;;;;8.10;6.90;;;18.60;99.20;;;;;;5009419;28;20065;-71
2021/09/27 05:11:22;;;;;;;8.35;7.45;;;18.60;99.20;;;;;;4999017;28;20066;-71
2021/09/27 05:14:09;;;;;;;9.27;7.07;;;18.60;99.10;;;;;;4998885;28;20038;-71
2021/09/27 05:16:40;;;;;;;10.32;7.28;;;18.60;99.10;;;;;;5008027;28;20029;-71
2021/09/27 05:19:43;;;;;;;11.68;7.63;;;18.70;99.20;;;;;;5010090;28;20087;-73
2021/09/27 05:22:30;;;;;;;9.35;7.80;;;18.60;99.10;;;;;;5001963;28;20030;-72
2021/09/27 05:25:07;;;;;;;9.55;7.32;;;18.60;99.00;;;;;;4996051;28;20037;-72
2021/09/27 05:27:45;;;;;;;9.57;7.47;;;18.60;99.00;;;;;;5006954;28;20025;-72
2021/09/27 05:30:37;;;;;;;10.73;7.70;;;18.60;99.10;;;;;;4997141;28;20426;-71
2021/09/27 05:33:31;;;;;;;9.68;7.35;;;18.60;99.10;;;;;;4999713;28;20069;-72
2021/09/27 05:36:16;;;;;;;10.10;7.28;;;18.60;99.10;;;;;;5006321;28;20041;-72
2021/09/27 05:39:09;;;;;;;11.23;6.85;;;18.70;99.10;;;;;;4999404;28;20053;-72
2021/09/27 05:42:10;;;;;;;9.10;6.90;;;18.70;99.10;;;;;;5005148;28;20214;-72
2021/09/27 05:44:39;;;;;;;9.63;7.28;;;18.70;99.00;;;;;;4999790;28;20037;-72
2021/09/27 05:47:23;;;;;;;9.52;7.72;;;18.70;99.00;;;;;;5003571;28;20441;-72
2021/09/27 05:50:06;;;;;;;8.83;7.37;;;18.80;99.00;;;;;;4999622;28;20064;-72
2021/09/27 05:52:49;;;;;;;9.85;7.72;;;18.80;99.00;;;;;;4991606;28;20603;-72
2021/09/27 05:55:39;;;;;;;10.00;7.72;;;18.80;99.00;;;;;;5000248;28;20043;-72
2021/09/27 05:58:22;;;;;;;10.40;7.80;;;18.80;99.00;;;;;;4999340;28;20038;-71
2021/09/27 06:01:07;;;;;;;10.85;7.43;;;18.80;99.00;;;;;;4995769;28;20030;-72
2021/09/27 06:03:53;;;;;;;;;;;18.70;98.90;;;;;;5003502;28;20037;-72
2021/09/27 06:06:32;;;;;;;8.63;7.10;;;18.80;98.90;;;;;;5006649;28;20000;-71
2021/09/27 06:09:19;;;;;;;10.32;7.63;;;18.80;98.90;;;;;;4997469;28;20033;-71
2021/09/27 06:11:51;;;;;;;8.82;7.13;;;18.80;98.80;;;;;;4992145;28;20061;-73
2021/09/27 06:14:17;;;;;;;9.75;7.00;;;18.90;98.80;;;;;;5005467;28;20017;-71
2021/09/27 06:17:16;;;;;;;9.38;7.47;;;18.90;98.90;;;;;;4999033;28;20022;-70
2021/09/27 06:20:02;;;;;;;9.43;7.22;;;19.00;98.80;;;;;;5007635;28;20042;-75
2021/09/27 06:22:39;;;;;;;9.38;7.75;;;19.10;98.70;;;;;;5004305;28;20026;-72
2021/09/27 06:25:25;;;;;;;13.70;7.78;;;19.20;98.70;;;;;;5007222;28;20113;-72
2021/09/27 06:28:01;;;;;;;9.43;7.13;;;19.30;98.70;;;;;;4993667;28;20033;-71
2021/09/27 06:30:40;;;;;;;10.57;8.27;;;19.40;98.50;;;;;;5000684;28;20514;-73
2021/09/27 06:33:19;;;;;;;11.40;7.30;;;19.40;98.40;;;;;;4995923;28;20032;-72
2021/09/27 06:35:48;;;;;;;11.93;6.93;;;19.50;98.40;;;;;;5006796;28;20045;-73
2021/09/27 06:38:16;;;;;;;10.55;8.45;;;19.60;98.30;;;;;;5001079;28;20116;-73
2021/09/27 06:40:46;;;;;;;10.15;7.78;;;19.60;98.20;;;;;;5003433;28;20034;-73
2021/09/27 06:43:17;;;;;;;11.85;7.53;;;19.70;98.30;;;;;;5001448;28;20037;-73
2021/09/27 06:45:42;;;;;;;10.27;7.65;;;19.70;98.40;;;;;;4998178;28;20037;-72
2021/09/27 06:48:08;;;;;;;11.13;7.88;;;19.70;98.20;;;;;;5002530;28;20018;-71
2021/09/27 06:50:33;;;;;;;10.30;8.02;;;19.80;98.20;;;;;;5012374;28;20964;-72
2021/09/27 06:52:59;;;;;;;10.45;7.93;;;19.80;98.10;;;;;;4998790;28;20034;-70
2021/09/27 06:55:26;;;;;;;10.00;7.53;;;19.80;98.00;;;;;;4999968;28;20046;-69
2021/09/27 06:57:52;;;;;;;8.50;7.60;;;19.80;98.10;;;;;;5003093;28;20049;-72
2021/09/27 07:00:17;;;;;;;11.77;7.78;;;19.80;98.00;;;;;;5005963;28;20014;-72
2021/09/27 07:02:43;;;;;;;9.23;7.05;;;19.80;97.80;;;;;;4992911;28;20026;-72
2021/09/27 07:05:10;;;;;;;10.57;8.82;;;19.80;97.80;;;;;;5007231;28;20091;-72
2021/09/27 07:07:37;;;;;;;9.13;7.25;;;19.80;97.90;;;;;;5000899;28;20026;-72
2021/09/27 07:10:05;;;;;;;8.77;6.72;;;19.80;97.80;;;;;;5003557;28;20124;-74
2021/09/27 07:12:30;;;;;;;9.95;7.00;;;19.90;97.70;;;;;;5001560;28;20050;-72
2021/09/27 07:14:56;;;;;;;9.93;7.60;;;19.90;97.70;;;;;;5008844;28;20159;-72
2021/09/27 07:17:21;;;;;;;10.25;7.38;;;19.90;97.70;;;;;;4999701;28;20037;-72
2021/09/27 07:19:47;;;;;;;9.27;7.60;;;20.00;97.70;;;;;;4998373;28;20138;-71
2021/09/27 07:22:12;;;;;;;10.80;7.60;;;20.10;97.70;;;;;;5002749;28;20470;-72
2021/09/27 07:24:40;;;;;;;10.88;7.65;;;20.10;97.60;;;;;;5001940;28;20164;-72
2021/09/27 07:27:06;;;;;;;10.65;7.15;;;20.20;97.50;;;;;;4995022;28;20129;-71
2021/09/27 07:29:31;;;;;;;10.82;7.15;;;20.20;97.60;;;;;;5005799;28;20033;-72
2021/09/27 07:31:57;;;;;;;7.82;6.70;;;20.20;97.40;;;;;;5001611;28;20411;-72
2021/09/27 07:34:22;;;;;;;11.38;6.80;;;20.30;97.30;;;;;;5000740;28;20030;-72
2021/09/27 07:36:48;;;;;;;9.50;7.25;;;20.30;97.30;;;;;;5000234;28;20029;-71
2021/09/27 07:39:14;;;;;;;10.25;7.30;;;20.30;97.20;;;;;;5010223;28;20037;-71
2021/09/27 07:41:39;;;;;;;11.20;7.38;;;20.30;97.20;;;;;;5005133;28;20438;-71
2021/09/27 07:44:06;;;;;;;10.40;6.82;;;20.30;97.20;;;;;;5007950;28;20030;-71
2021/09/27 07:46:32;;;;;;;9.35;7.45;;;20.30;97.20;;;;;;5003617;28;20019;-71
2021/09/27 07:48:57;;;;;;;9.43;7.10;;;20.30;97.20;;;;;;5003007;28;20088;-71
2021/09/27 07:51:24;;;;;;;8.48;6.35;;;20.40;97.20;;;;;;5007765;28;20483;-72
2021/09/27 07:53:49;;;;;;;9.25;6.70;;;20.40;97.10;;;;;;5010720;28;20161;-71
2021/09/27 07:56:15;;;;;;;9.63;7.80;;;20.50;97.20;;;;;;5002881;28;20498;-70
2021/09/27 07:58:41;;;;;;;9.77;7.20;;;20.40;97.00;;;;;;4999959;28;20141;-69
2021/09/27 08:01:07;;;;;;;8.52;7.28;;;20.50;97.00;;;;;;5011971;28;20109;-69
2021/09/27 08:03:32;;;;;;;9.38;7.63;;;20.40;97.10;;;;;;5012201;28;20034;-70
2021/09/27 08:05:58;;;;;;;9.00;7.68;;;20.50;96.90;;;;;;5009014;28;20118;-69
2021/09/27 08:08:23;;;;;;;11.48;6.43;;;20.50;96.90;;;;;;5014380;28;20034;-70
2021/09/27 08:10:49;;;;;;;9.80;6.88;;;20.50;97.00;;;;;;5012695;28;20044;-70
2021/09/27 08:13:15;;;;;;;9.07;6.65;;;20.60;96.80;;;;;;5009782;28;20029;-69
2021/09/27 08:15:44;;;;;;;9.05;7.15;;;20.60;96.70;;;;;;5010165;28;20074;-69
2021/09/27 08:18:11;;;;;;;10.65;6.80;;;20.60;96.80;;;;;;5012793;28;20044;-72
2021/09/27 08:20:40;;;;;;;11.25;7.25;;;20.60;96.70;;;;;;5013197;28;20100;-73
2021/09/27 08:23:06;;;;;;;11.30;7.22;;;20.50;96.60;;;;;;5010983;28;20036;-69
2021/09/27 08:25:32;;;;;;;10.15;6.40;;;20.60;96.90;;;;;;5012590;28;20125;-69
2021/09/27 08:27:59;;;;;;;10.70;7.05;;;20.60;96.70;;;;;;5012950;28;20044;-69
2021/09/27 08:30:42;;;;;;;8.73;6.95;;;20.70;96.70;;;;;;5012685;28;20045;-69
2021/09/27 08:33:08;;;;;;;10.55;6.47;;;20.80;96.70;;;;;;5008712;28;20025;-70
2021/09/27 08:35:34;;;;;;;8.77;7.30;;;20.80;96.60;;;;;;5012416;28;20101;-70
2021/09/27 08:38:02;;;;;;;9.98;6.65;;;20.80;96.60;;;;;;5012471;28;20045;-71
2021/09/27 08:40:39;;;;;;;7.72;6.53;;;20.80;96.70;;;;;;5015014;28;20045;-71
2021/09/27 08:43:18;;;;;;;10.27;7.22;;;20.90;96.80;;;;;;5017078;28;20033;-71
2021/09/27 08:45:46;;;;;;;12.23;7.60;;;20.90;96.60;;;;;;5013751;28;20370;-72
2021/09/27 08:48:26;;;;;;;9.60;7.30;;;20.90;96.50;;;;;;5013090;28;20041;-73
2021/09/27 08:50:53;;;;;;;10.30;7.55;;;21.00;96.60;;;;;;5006043;28;20017;-73
2021/09/27 08:53:27;;;;;;;12.43;7.45;;;21.10;96.50;;;;;;5007707;28;20061;-73
2021/09/27 08:56:00;;;;;;;9.23;6.75;;;21.10;96.40;;;;;;5000381;28;20040;-73
2021/09/27 08:58:36;;;;;;;9.83;7.30;;;21.20;96.60;;;;;;5009713;28;20421;-73
2021/09/27 09:01:09;;;;;;;9.57;7.22;;;21.20;96.50;;;;;;5002370;28;20446;-72
2021/09/27 09:03:49;;;;;;;9.50;6.35;;;21.30;96.40;;;;;;5012089;28;20450;-72
2021/09/27 09:06:50;;;;;;;13.15;8.00;;;21.30;96.30;;;;;;5011878;28;20026;-72
2021/09/27 09:09:22;;;;;;;10.15;8.07;;;21.40;96.40;;;;;;4994095;28;20395;-73
2021/09/27 09:12:19;;;;;;;11.65;7.30;;;21.40;96.20;;;;;;5018215;28;20078;-72
2021/09/27 09:14:57;;;;;;;9.63;7.43;;;21.40;96.20;;;;;;4992240;28;20374;-73
2021/09/27 09:17:40;;;;;;;9.50;7.25;;;21.30;96.20;;;;;;4995862;28;20103;-73
2021/09/27 09:20:21;;;;;;;10.27;7.23;;;21.30;96.00;;;;;;5012910;28;20495;-73
2021/09/27 09:22:48;;;;;;;11.50;7.20;;;21.30;96.10;;;;;;5011568;28;20154;-73
2021/09/27 09:25:27;;;;;;;10.07;7.05;;;21.30;96.10;;;;;;5008220;28;20478;-71
2021/09/27 09:27:54;;;;;;;12.18;7.18;;;21.30;96.10;;;;;;5007330;28;20042;-73
2021/09/27 09:30:26;;;;;;;11.00;7.53;;;21.30;96.10;;;;;;5013069;28;20497;-72
2021/09/27 09:32:54;;;;;;;11.98;7.50;;;21.30;96.20;;;;;;5009794;28;20144;-73
2021/09/27 09:35:31;;;;;;;10.20;7.68;;;21.30;96.10;;;;;;5003774;28;20084;-73
2021/09/27 09:38:07;;;;;;;12.80;7.93;;;21.40;96.00;;;;;;5011834;28;20556;-73
2021/09/27 09:40:42;;;;;;;10.48;7.93;;;21.40;96.00;;;;;;5008312;28;20497;-73
2021/09/27 09:43:12;;;;;;;10.85;7.25;;;21.40;96.00;;;;;;5012304;28;20130;-73
2021/09/27 09:45:41;;;;;;;12.15;8.02;;;21.40;96.10;;;;;;5010661;28;20509;-73
2021/09/27 09:48:21;;;;;;;11.18;7.70;;;21.40;96.00;;;;;;5012379;28;20053;-73
2021/09/27 09:50:50;;;;;;;12.77;7.57;;;21.40;96.00;;;;;;5010437;28;20033;-72
2021/09/27 09:53:24;;;;;;;12.65;7.68;;;21.40;95.80;;;;;;5020448;28;20477;-73
2021/09/27 09:56:09;;;;;;;9.13;6.75;;;21.40;95.80;;;;;;5030259;28;20037;-73
2021/09/27 09:58:39;;;;;;;10.85;8.13;;;21.40;95.70;;;;;;5005636;28;20048;-73
2021/09/27 10:01:14;;;;;;;13.77;8.05;;;21.40;96.00;;;;;;5004170;28;20033;-72
2021/09/27 10:03:43;;;;;;;10.25;7.32;;;21.40;95.90;;;;;;5008262;28;20026;-71
2021/09/27 10:06:16;;;;;;;11.23;7.43;;;21.50;96.10;;;;;;5010947;28;20187;-72
2021/09/27 10:08:58;;;;;;;9.68;7.38;;;21.50;96.10;;;;;;5011375;28;20079;-71
2021/09/27 10:11:28;;;;;;;8.88;7.68;;;21.60;96.10;;;;;;5011141;28;20030;-71
2021/09/27 10:13:54;;;;;;;9.20;7.35;;;21.60;95.90;;;;;;5010716;28;20025;-72
2021/09/27 10:16:32;;;;;;;11.82;7.40;;;21.60;95.90;;;;;;4992357;28;20113;-72
2021/09/27 10:19:27;;;;;;;13.38;8.05;;;21.70;95.90;;;;;;4992462;28;20042;-71
2021/09/27 10:22:00;;;;;;;9.52;7.15;;;21.70;95.90;;;;;;5002876;28;20025;-74
2021/09/27 10:24:46;;;;;;;29.50;9.32;;;21.80;95.80;;;;;;5007983;28;20088;-72
2021/09/27 10:27:35;;;;;;;10.18;7.90;;;21.80;95.50;;;;;;5010174;28;20034;-71
2021/09/27 10:30:14;;;;;;;9.63;7.30;;;21.90;95.60;;;;;;5010879;28;20045;-72
2021/09/27 10:32:44;;;;;;;10.13;7.35;;;21.90;95.50;;;;;;4998446;28;20112;-71
2021/09/27 10:35:33;;;;;;;11.75;8.63;;;21.90;95.40;;;;;;5007203;28;20486;-71
2021/09/27 10:38:09;;;;;;;18.70;11.98;;;21.90;95.60;;;;;;5009152;28;20045;-71
2021/09/27 10:40:35;;;;;;;11.23;7.25;;;22.00;95.50;;;;;;4998447;28;20068;-71
2021/09/27 10:43:03;;;;;;;10.23;8.02;;;22.00;95.30;;;;;;5010238;28;20494;-71
2021/09/27 10:45:30;;;;;;;9.85;6.93;;;22.10;95.30;;;;;;5008625;28;20037;-70
2021/09/27 10:47:56;;;;;;;10.40;7.40;;;22.10;95.10;;;;;;5002512;28;20022;-71
2021/09/27 10:50:27;;;;;;;11.18;7.68;;;22.20;95.40;;;;;;5006396;28;20030;-74
2021/09/27 10:52:56;;;;;;;12.93;8.73;;;22.30;95.30;;;;;;5006197;28;20022;-71
2021/09/27 10:55:52;;;;;;;9.60;7.20;;;22.30;95.20;;;;;;5004856;28;20058;-80
2021/09/27 10:58:43;;;;;;;9.38;7.35;;;22.40;95.10;;;;;;5011123;28;20038;-73
2021/09/27 11:01:12;;;;;;;11.05;8.10;;;22.40;95.10;;;;;;4999674;28;20034;-75
2021/09/27 11:03:50;;;;;;;11.90;7.85;;;22.40;95.00;;;;;;4998699;28;20096;-73
2021/09/27 11:06:22;;;;;;;10.50;8.15;;;22.50;95.20;;;;;;4995067;28;20036;-77
2021/09/27 11:09:17;;;;;;;12.43;8.20;;;22.60;95.00;;;;;;5003555;28;20026;-75
2021/09/27 11:12:08;;;;;;;11.45;6.70;;;22.60;94.90;;;;;;5007155;28;20112;-71
2021/09/27 11:14:39;;;;;;;11.20;7.25;;;22.70;94.80;;;;;;4996529;28;20061;-71
2021/09/27 11:17:22;;;;;;;9.40;7.45;;;22.70;94.60;;;;;;5007625;28;20041;-73
2021/09/27 11:20:14;;;;;;;11.10;7.85;;;22.80;94.60;;;;;;4999730;28;20040;-75
2021/09/27 11:22:43;;;;;;;9.65;7.82;;;22.90;94.50;;;;;;5011919;28;20034;-78
2021/09/27 11:25:22;;;;;;;8.35;6.93;;;23.00;94.50;;;;;;5010967;28;20037;-76
2021/09/27 11:28:24;;;;;;;9.20;6.90;;;23.10;94.20;;;;;;5001360;28;20040;-76
2021/09/27 11:31:05;;;;;;;10.48;7.72;;;23.10;94.10;;;;;;5005458;28;20037;-77
2021/09/27 11:33:30;;;;;;;8.68;7.32;;;23.10;94.00;;;;;;5005007;28;20026;-76
2021/09/27 11:36:03;;;;;;;11.38;7.40;;;23.10;94.00;;;;;;5007251;28;20093;-75
2021/09/27 11:38:35;;;;;;;10.52;7.00;;;23.10;94.00;;;;;;5004981;28;20038;-76
2021/09/27 11:41:10;;;;;;;10.13;6.82;;;23.10;93.90;;;;;;5003867;28;20026;-76
2021/09/27 11:43:49;;;;;;;10.65;6.90;;;23.10;94.10;;;;;;4999102;28;20083;-76
2021/09/27 11:46:19;;;;;;;10.02;7.90;;;23.00;94.00;;;;;;4998022;28;20034;-76
2021/09/27 11:48:53;;;;;;;8.70;7.05;;;23.00;94.10;;;;;;5003673;28;20042;-75
2021/09/27 11:51:21;;;;;;;;;;;23.00;94.00;;;;;;5002646;28;20045;-76
2021/09/27 11:54:19;;;;;;;10.00;7.32;;;23.00;93.70;;;;;;5003973;28;19913;-75
2021/09/27 11:56:58;;;;;;;11.27;7.75;;;23.00;94.20;;;;;;5008216;28;20126;-73
2021/09/27 11:59:45;;;;;;;8.43;6.82;;;22.90;94.00;;;;;;5004996;28;20034;-74
2021/09/27 12:02:30;;;;;;;9.43;6.78;;;22.90;93.80;;;;;;5004889;28;20065;-75
2021/09/27 12:05:27;;;;;;;9.20;7.68;;;22.90;94.10;;;;;;5003582;28;20033;-74
2021/09/27 12:08:04;;;;;;;10.00;7.57;;;22.90;94.10;;;;;;5004524;28;20121;-74
2021/09/27 12:10:41;;;;;;;9.18;7.32;;;22.90;94.10;;;;;;5000619;28;20033;-74
2021/09/27 12:13:22;;;;;;;10.27;7.28;;;23.00;94.00;;;;;;5005329;28;20046;-74
2021/09/27 12:15:56;;;;;;;10.90;8.30;;;23.00;94.30;;;;;;5000004;28;20022;-74
2021/09/27 12:18:39;;;;;;;7.78;6.43;;;23.00;94.00;;;;;;5005504;28;20040;-74
2021/09/27 12:21:25;;;;;;;7.88;6.75;;;23.00;94.00;;;;;;4999826;28;20026;-74
2021/09/27 12:23:57;;;;;;;8.00;6.22;;;23.10;94.10;;;;;;5006387;28;20052;-75
2021/09/27 12:26:28;;;;;;;8.48;7.22;;;23.10;93.80;;;;;;4996800;28;20127;-75
2021/09/27 12:29:13;;;;;;;9.52;7.15;;;23.10;93.80;;;;;;5001193;28;20030;-75
2021/09/27 12:31:52;;;;;;;9.52;6.82;;;23.10;93.20;;;;;;4998844;28;20034;-75
2021/09/27 12:34:23;;;;;;;10.20;6.90;;;23.10;93.10;;;;;;5010536;28;20018;-75
2021/09/27 12:36:50;;;;;;;9.57;7.53;;;23.10;93.70;;;;;;5010352;28;20030;-77
2021/09/27 12:39:20;;;;;;;10.07;6.88;;;23.20;93.80;;;;;;5002733;28;20038;-76
2021/09/27 12:41:46;;;;;;;10.13;7.53;;;23.20;93.50;;;;;;5004598;28;20022;-77
2021/09/27 12:44:17;;;;;;;10.13;7.05;;;23.20;93.50;;;;;;5008484;28;20084;-77
2021/09/27 12:46:46;;;;;;;9.40;7.30;;;23.30;93.40;;;;;;4997289;28;20022;-76
2021/09/27 12:49:14;;;;;;;8.60;6.90;;;23.20;93.60;;;;;;5009191;28;20076;-78
2021/09/27 12:51:49;;;;;;;9.13;7.15;;;23.30;93.50;;;;;;5009251;28;20060;-77
2021/09/27 12:54:36;;;;;;;9.32;6.78;;;23.30;93.40;;;;;;5011391;28;20124;-77
2021/09/27 12:57:12;;;;;;;8.68;7.20;;;23.30;93.00;;;;;;4998656;28;20109;-78
2021/09/27 12:59:37;;;;;;;8.75;7.15;;;23.30;93.40;;;;;;5007587;28;20046;-78
2021/09/27 13:02:11;;;;;;;9.60;7.93;;;23.20;93.60;;;;;;5010593;28;20084;-77
2021/09/27 13:04:44;;;;;;;10.25;7.65;;;23.30;93.80;;;;;;5001904;28;20387;-77
2021/09/27 13:07:16;;;;;;;9.70;7.43;;;23.40;93.70;;;;;;5007350;28;20102;-77
2021/09/27 13:10:17;;;;;;;11.55;7.78;;;23.40;93.50;;;;;;5002015;28;20034;-77
2021/09/27 13:12:58;;;;;;;9.70;7.72;;;23.40;93.80;;;;;;4994700;28;20131;-77
2021/09/27 13:15:31;;;;;;;8.15;7.30;;;23.40;93.50;;;;;;5003431;28;20037;-77
2021/09/27 13:18:06;;;;;;;9.00;6.65;;;23.50;93.60;;;;;;5000964;28;20084;-77
2021/09/27 13:21:12;;;;;;;8.65;7.07;;;23.50;93.30;;;;;;5009183;28;20038;-77
2021/09/27 13:23:42;;;;;;;8.38;7.32;;;23.50;93.30;;;;;;4999965;28;20025;-77
2021/09/27 13:26:31;;;;;;;8.63;7.13;;;23.50;93.40;;;;;;4998965;28;20121;-77
2021/09/27 13:29:22;;;;;;;8.55;7.25;;;23.50;93.40;;;;;;5002013;28;20057;-77
2021/09/27 13:31:58;;;;;;;9.15;7.50;;;23.50;93.20;;;;;;5000703;28;20049;-77
2021/09/27 13:34:33;;;;;;;9.85;7.43;;;23.40;93.00;;;;;;4994377;28;20064;-78